createdAt,value
2022-12-04T00:23:09.028Z,100.00
2022-12-04T02:18:13.069Z,100.00
2022-12-04T02:20:51.732Z,100.00
2022-12-04T02:23:42.875Z,100.00
2022-12-04T02:26:42.888Z,100.00
2022-12-04T02:29:58.505Z,100.00
2022-12-04T02:32:46.936Z,100.00
2022-12-04T02:35:27.692Z,100.00
2022-12-04T02:38:05.038Z,100.00
2022-12-04T02:41:06.573Z,100.00
2022-12-04T02:47:30.827Z,100.00
2022-12-04T02:50:05.909Z,100.00
2022-12-04T02:52:39.966Z,100.00
2022-12-04T03:07:09.991Z,100.00
2022-12-04T03:09:47.912Z,100.00
2022-12-04T03:30:35.960Z,100.00
2022-12-04T03:33:29.904Z,100.00
2022-12-04T04:23:35.335Z,100.00
2022-12-04T05:20:41.021Z,100.00
2022-12-04T05:23:30.424Z,100.00
2022-12-04T05:32:10.494Z,100.00
2022-12-04T05:54:44.369Z,100.00
2022-12-04T06:06:19.473Z,100.00
2022-12-04T06:14:22.220Z,100.00
2022-12-04T06:16:49.185Z,100.00
2022-12-04T06:19:18.664Z,100.00
2022-12-04T06:21:47.928Z,100.00
2022-12-04T06:24:29.605Z,100.00
2022-12-04T07:29:38.506Z,100.00
2022-12-04T07:32:28.137Z,100.00
2022-12-04T07:41:03.417Z,100.00
2022-12-04T07:43:41.550Z,100.00
2022-12-04T07:46:14.384Z,100.00
2022-12-04T07:48:48.917Z,100.00
2022-12-04T07:51:26.030Z,100.00
2022-12-04T09:36:24.527Z,100.00
2022-12-04T09:39:07.029Z,100.00
2022-12-04T09:41:36.954Z,100.00
2022-12-04T09:44:44.426Z,100.00
2022-12-04T09:48:03.706Z,100.00
2022-12-04T09:50:53.993Z,100.00
2022-12-04T09:54:04.845Z,100.00
2022-12-04T09:57:06.694Z,100.00
2022-12-04T09:59:33.672Z,100.00
2022-12-04T10:02:16.185Z,100.00
2022-12-04T10:26:16.559Z,100.00
2022-12-04T10:28:55.387Z,100.00
2022-12-04T10:31:25.126Z,100.00
2022-12-04T10:34:07.917Z,100.00
2022-12-04T10:36:36.161Z,100.00
2022-12-04T10:39:10.475Z,100.00
2022-12-04T10:42:04.234Z,100.00
2022-12-04T10:44:31.551Z,100.00
2022-12-04T10:47:04.300Z,100.00
2022-12-04T10:49:35.648Z,100.00
2022-12-04T10:52:03.453Z,100.00
2022-12-04T10:54:48.721Z,100.00
2022-12-04T10:57:18.866Z,100.00
2022-12-04T10:59:55.579Z,99.96
2022-12-04T11:02:38.291Z,97.43
2022-12-04T11:05:41.649Z,96.85
2022-12-04T11:08:21.502Z,97.19
2022-12-04T11:10:59.280Z,96.55
2022-12-04T11:13:26.806Z,96.40
2022-12-04T11:15:58.343Z,96.34
2022-12-04T11:18:32.315Z,96.90
2022-12-04T11:21:07.927Z,97.04
2022-12-04T11:23:42.451Z,96.98
2022-12-04T11:26:10.783Z,96.93
2022-12-04T11:28:42.090Z,97.07
2022-12-04T11:31:15.966Z,96.26
2022-12-04T11:33:57.035Z,94.23
2022-12-04T11:36:28.618Z,91.72
2022-12-04T11:39:07.751Z,91.28
2022-12-04T11:41:35.021Z,90.41
2022-12-04T11:44:01.957Z,90.38
2022-12-04T11:46:31.419Z,91.25
2022-12-04T11:48:58.953Z,89.36
2022-12-04T11:51:57.450Z,89.38
2022-12-04T11:55:02.489Z,85.67
2022-12-04T11:57:41.777Z,84.29
2022-12-04T12:00:16.208Z,83.44
2022-12-04T12:02:55.154Z,83.76
2022-12-04T12:05:48.386Z,81.42
2022-12-04T12:08:24.673Z,80.29
2022-12-04T12:11:15.496Z,80.17
2022-12-04T12:14:00.980Z,79.94
2022-12-04T12:16:58.974Z,79.32
2022-12-04T12:20:00.750Z,78.36
2022-12-04T12:23:01.545Z,77.21
2022-12-04T12:25:53.077Z,76.81
2022-12-04T12:28:55.096Z,74.94
2022-12-04T12:32:18.151Z,71.69
2022-12-04T12:34:46.592Z,73.79
2022-12-04T12:38:02.627Z,75.75
2022-12-04T12:40:32.529Z,76.36
2022-12-04T12:43:16.939Z,75.50
2022-12-04T12:46:23.640Z,75.54
2022-12-04T12:49:08.323Z,75.04
2022-12-04T12:51:44.714Z,75.85
2022-12-04T12:54:41.377Z,76.79
2022-12-04T12:57:36.344Z,77.05
2022-12-04T13:00:23.566Z,77.67
2022-12-04T13:03:29.271Z,78.34
2022-12-04T13:06:04.179Z,79.59
2022-12-04T13:09:15.382Z,79.30
2022-12-04T13:11:45.860Z,81.03
2022-12-04T13:14:17.045Z,80.60
2022-12-04T13:16:54.956Z,81.10
2022-12-04T13:19:22.609Z,81.52
2022-12-04T13:22:33.001Z,80.89
2022-12-04T13:25:10.891Z,81.37
2022-12-04T13:27:53.342Z,80.82
2022-12-04T13:30:25.203Z,81.45
2022-12-04T13:33:10.663Z,81.79
2022-12-04T13:36:02.264Z,81.60
2022-12-04T13:38:44.333Z,81.33
2022-12-04T13:41:29.218Z,81.24
2022-12-04T13:44:00.623Z,81.23
2022-12-04T13:46:41.211Z,81.54
2022-12-04T13:49:28.520Z,82.37
2022-12-04T13:51:58.130Z,81.82
2022-12-04T13:54:35.009Z,81.96
2022-12-04T13:57:17.549Z,81.78
2022-12-04T13:59:45.416Z,82.07
2022-12-04T14:02:41.218Z,81.33
2022-12-04T14:05:21.750Z,81.58
2022-12-04T14:08:08.239Z,82.65
2022-12-04T14:10:39.255Z,83.09
2022-12-04T14:13:18.536Z,83.05
2022-12-04T14:15:48.804Z,82.94
2022-12-04T14:18:29.863Z,83.10
2022-12-04T14:21:05.679Z,83.38
2022-12-04T14:23:43.352Z,82.72
2022-12-04T14:27:03.582Z,83.03
2022-12-04T14:29:57.312Z,83.45
2022-12-04T14:32:28.215Z,84.55
2022-12-04T14:34:56.547Z,84.69
2022-12-04T14:37:56.107Z,84.08
2022-12-04T14:40:47.147Z,84.99
2022-12-04T14:43:23.673Z,85.12
2022-12-04T16:07:55.995Z,89.99
2022-12-04T16:10:29.878Z,90.21
2022-12-04T16:13:26.413Z,91.68
2022-12-04T16:15:53.463Z,92.41
2022-12-04T16:18:32.709Z,91.91
2022-12-04T16:20:59.755Z,92.10
2022-12-04T16:23:27.264Z,92.24
2022-12-04T16:25:57.027Z,93.12
2022-12-04T16:28:24.125Z,92.91
2022-12-04T16:30:54.840Z,92.90
2022-12-04T16:33:23.404Z,93.62
2022-12-04T16:35:50.807Z,94.19
2022-12-04T16:38:18.036Z,93.93
2022-12-04T16:40:46.501Z,93.48
2022-12-04T16:43:15.759Z,93.85
2022-12-04T16:45:58.241Z,94.05
2022-12-04T16:48:25.088Z,94.45
2022-12-04T16:50:52.349Z,94.49
2022-12-04T16:53:22.573Z,94.22
2022-12-04T16:55:50.970Z,94.07
2022-12-04T16:58:19.270Z,93.73
2022-12-04T17:00:55.379Z,94.20
2022-12-04T17:03:29.515Z,93.65
2022-12-04T17:05:57.512Z,94.13
2022-12-04T17:08:38.489Z,94.22
2022-12-04T17:11:08.255Z,93.44
2022-12-04T17:13:35.153Z,93.89
2022-12-04T17:16:19.931Z,94.12
2022-12-04T17:19:12.434Z,94.76
2022-12-04T17:21:47.379Z,95.42
2022-12-04T17:24:23.323Z,95.48
2022-12-04T17:26:50.839Z,95.64
2022-12-04T17:29:20.153Z,96.28
2022-12-04T17:31:47.078Z,95.56
2022-12-04T17:34:15.315Z,95.52
2022-12-04T17:36:42.159Z,95.92
2022-12-04T17:39:11.778Z,96.25
2022-12-04T17:41:38.749Z,96.63
2022-12-04T17:44:05.971Z,97.13
2022-12-04T17:46:33.022Z,97.12
2022-12-04T17:49:05.341Z,97.41
2022-12-04T17:51:35.204Z,97.90
2022-12-04T17:54:02.403Z,98.13
2022-12-04T17:56:29.275Z,96.67
2022-12-04T17:58:58.994Z,97.09
2022-12-04T18:01:28.257Z,96.89
2022-12-04T18:04:06.267Z,96.87
2022-12-04T18:08:10.012Z,96.11
2022-12-04T18:12:50.017Z,96.33
2022-12-04T18:15:17.092Z,97.51
2022-12-04T18:17:47.783Z,97.96
2022-12-04T18:20:19.000Z,97.07
2022-12-04T18:22:48.281Z,96.75
2022-12-04T18:25:23.953Z,95.87
2022-12-04T18:27:51.223Z,97.23
2022-12-04T18:30:18.924Z,96.18
2022-12-04T18:32:47.488Z,96.44
2022-12-04T18:35:14.698Z,94.69
2022-12-04T18:37:41.774Z,93.67
2022-12-04T18:40:09.391Z,93.36
2022-12-04T18:42:36.624Z,93.89
2022-12-04T18:45:07.075Z,94.59
2022-12-04T18:47:36.746Z,94.64
2022-12-04T18:50:07.008Z,95.45
2022-12-04T18:52:37.036Z,95.56
2022-12-04T18:55:27.372Z,95.88
2022-12-04T18:57:54.355Z,96.12
2022-12-04T19:00:24.616Z,96.69
2022-12-04T19:47:54.628Z,98.69
2022-12-04T19:50:21.856Z,98.78
2022-12-04T19:52:49.100Z,99.58
2022-12-04T19:55:16.254Z,98.81
2022-12-04T19:57:43.241Z,97.96
2022-12-04T20:00:10.690Z,98.28
2022-12-04T20:02:38.416Z,97.15
2022-12-04T20:05:14.709Z,97.38
2022-12-04T20:10:42.663Z,99.10
2022-12-04T20:13:15.064Z,99.94
2022-12-04T20:21:27.164Z,100.00
2022-12-04T20:23:55.049Z,100.00
2022-12-04T20:26:29.423Z,100.00
2022-12-04T20:28:58.429Z,100.00
2022-12-04T20:31:28.770Z,100.00
2022-12-04T20:34:03.148Z,100.00
2022-12-04T20:36:32.550Z,100.00
2022-12-04T20:38:59.952Z,100.00
2022-12-04T20:41:29.138Z,100.00
2022-12-04T20:43:59.617Z,99.68
2022-12-04T20:46:32.702Z,98.15
2022-12-04T20:49:01.283Z,97.86
2022-12-04T20:51:37.553Z,98.94
2022-12-04T20:54:16.142Z,98.91
2022-12-04T20:59:49.135Z,98.88
2022-12-04T21:02:16.463Z,97.62
2022-12-04T21:08:20.652Z,98.28
2022-12-04T21:10:48.511Z,98.19
2022-12-04T21:13:41.555Z,97.26
2022-12-04T21:16:09.472Z,94.04
2022-12-04T21:18:37.287Z,93.41
2022-12-04T21:21:14.351Z,93.21
2022-12-04T21:23:47.412Z,93.20
2022-12-04T21:26:41.615Z,92.66
2022-12-04T21:51:55.809Z,90.76
2022-12-04T21:54:59.453Z,91.02
2022-12-04T22:22:10.090Z,91.13
2022-12-04T22:38:25.266Z,92.85
2022-12-04T22:40:52.242Z,93.33
2022-12-04T22:46:24.400Z,93.94
2022-12-04T22:48:52.567Z,94.87
2022-12-04T22:51:22.751Z,95.91
2022-12-04T22:53:55.102Z,96.67
2022-12-04T22:56:32.158Z,98.36
2022-12-04T22:59:03.059Z,99.10
2022-12-04T23:01:32.658Z,98.54
2022-12-04T23:04:01.096Z,99.52
2022-12-04T23:06:32.274Z,99.68
2022-12-04T23:09:12.517Z,100.00
2022-12-04T23:11:39.919Z,100.00
2022-12-04T23:14:09.194Z,100.00
2022-12-04T23:16:37.933Z,100.00
2022-12-04T23:19:09.053Z,100.00
2022-12-04T23:21:36.182Z,100.00
2022-12-04T23:24:03.485Z,99.14
2022-12-04T23:26:46.953Z,97.04
2022-12-04T23:29:50.959Z,96.67
2022-12-04T23:32:36.627Z,96.64
2022-12-04T23:35:05.082Z,96.32
2022-12-04T23:37:48.301Z,96.55
2022-12-04T23:44:41.006Z,96.26
2022-12-04T23:47:14.251Z,96.30
2022-12-04T23:49:41.311Z,96.29
2022-12-04T23:52:08.259Z,96.68
2022-12-04T23:54:37.716Z,95.96
2022-12-04T23:57:16.605Z,95.56
2022-12-04T23:59:43.714Z,95.81
